Track Трегубов Никита

Time Latitude Longitude Accuracy (66% radius in meters) Altitude (meters) Speed (km/hour) Bearing (degrees) Battery (%) GPS flag
03:35:54 51.887488 107.641678 1.7000000476837 690.7 3.8660786151886 112.87000274658 84 1 delete
03:35:52 51.887540 107.641633 1.7999999523163 686.5 4.2912392616272 134.10000610352 84 1 delete
03:35:50 51.887623 107.641530 1.7999999523163 684.2 4.0807175636292 132.47999572754 84 1 delete
03:35:48 51.887688 107.641382 1.8999999761581 683.7 3.8321068286896 131.46000671387 84 1 delete
03:35:46 51.887758 107.641252 1.7999999523163 683.9 3.4553303718567 149.19999694824 84 1 delete
03:35:44 51.887838 107.641122 1.7999999523163 683.8 3.3513565063477 132.53999328613 84 1 delete
03:35:43 51.887873 107.641073 1.8999999761581 683.6 3.2540738582611 145.69000244141 84 1 delete
03:35:41 51.887943 107.640993 1.8999999761581 684.1 3.0306844711304 150.67999267578 84 1 delete
03:35:38 51.888055 107.640920 2 686.2 2.8520758152008 146.5 84 1 delete
03:35:36 51.888122 107.640818 2.0999999046326 688 2.8371489048004 146.67999267578 84 1 delete
03:35:33 51.888213 107.640705 2.0999999046326 690.7 3.0641412734985 148.03999328613 84 1 delete
03:35:32 51.888247 107.640670 2.0999999046326 692.3 3.2612800598145 187.53999328613 84 1 delete
03:35:30 51.888298 107.640652 2 694.8 3.7615900039673 149.38999938965 84 1 delete
03:35:27 51.888382 107.640592 1.8999999761581 697.7 3.7471778392792 165.83999633789 84 1 delete
03:35:24 51.888495 107.640545 1.7999999523163 700.2 3.2412059307098 161.30999755859 84 1 delete
03:35:22 51.888577 107.640432 1.8999999761581 701.9 3.0152428150177 138.94000244141 84 1 delete
03:35:21 51.888625 107.640360 1.8999999761581 702.7 2.9761238098145 148.57000732422 84 1 delete
03:35:20 51.888653 107.640332 1.8999999761581 703.6 3.0909068584442 157.5 84 1 delete
03:35:15 51.888752 107.640235 1.8999999761581 706.2 4.309769153595 119.4700012207 84 1 delete
03:35:12 51.888807 107.640075 1.8999999761581 707.7 4.4888925552368 123.58000183105 84 1 delete
03:35:10 51.888870 107.639978 1.8999999761581 709.1 4.4091105461121 136.61000061035 84 1 delete
03:35:09 51.888898 107.639935 1.7999999523163 709.9 4.3874921798706 137.80999755859 84 1 delete
03:35:07 51.888973 107.639843 1.7999999523163 711.4 4.3149166107178 152.75 84 1 delete
03:35:05 51.889062 107.639768 1.7999999523163 713.1 3.8079149723053 164.36999511719 84 1 delete
03:35:02 51.889180 107.639635 1.7999999523163 713.4 3.0193605422974 148.24000549316 84 1 delete
03:35:00 51.889248 107.639535 1.7000000476837 713.4 2.3563983440399 136.0299987793 84 1 delete
03:34:59 51.889280 107.639465 1.7000000476837 713.1 1.9991811513901 149.91000366211 84 1 delete
03:34:57 51.889337 107.639368 1.7000000476837 713 1.2049647569656 150.50999450684 84 1 delete
03:34:47 51.889402 107.639172 1.7000000476837 711.9 0.61560779809952 317.33999633789 84 1 delete
03:34:41 51.889412 107.639233 1.7999999523163 709.8 0.81737887859344 290.17999267578 84 1 delete
03:34:36 51.889427 107.639328 1.6000000238419 708.6 0.80759918689728 277.42999267578 84 1 delete
03:34:32 51.889453 107.639370 1.6000000238419 708.1 1.4298983812332 249.32000732422 84 1 delete
03:34:25 51.889555 107.639392 1.7999999523163 709.5 2.8139863014221 177.33999633789 84 1 delete
03:34:21 51.889663 107.639317 1.7999999523163 712.1 2.5015499591827 182.2200012207 84 1 delete
03:34:18 51.889757 107.639275 1.7999999523163 714.2 2.2390415668488 184.13999938965 84 1 delete
03:34:15 51.889855 107.639207 1.8999999761581 715.5 2.1556565761566 173.86999511719 84 1 delete
03:34:14 51.889883 107.639195 1.8999999761581 716.1 2.294116973877 167.66999816895 84 1 delete
03:34:10 51.889958 107.639158 2 717.4 3.0543615818024 201.13000488281 84 1 delete
03:34:07 51.890055 107.639113 2.0999999046326 718 3.4609923362732 161.25 84 1 delete
03:34:05 51.890140 107.639037 2.0999999046326 718.1 3.2324554920197 148.00999450684 84 1 delete
03:34:03 51.890217 107.638953 2.0999999046326 718.2 2.9879624843597 166.11000061035 84 1 delete
03:34:00 51.890320 107.638878 2 718.5 2.358457326889 175.05999755859 84 1 delete
03:33:57 51.890418 107.638858 1.7999999523163 718.1 1.8041013479233 194.36999511719 84 1 delete
03:33:54 51.890490 107.638758 1.7999999523163 717.3 1.3578372001648 130.58999633789 84 1 delete
03:33:51 51.890525 107.638670 1.7999999523163 718.2 1.6342430114746 124.41999816895 84 1 delete
03:33:50 51.890540 107.638615 1.7999999523163 718.3 1.5961536169052 141.94000244141 84 1 delete
03:33:45 51.890627 107.638505 1.8999999761581 719.5 1.6059333086014 183.5299987793 84 1 delete
03:33:41 51.890682 107.638355 1.8999999761581 720.3 1.7021863460541 139.96000671387 84 1 delete
03:33:40 51.890690 107.638323 1.8999999761581 720.8 1.8802802562714 116.95999908447 84 1 delete
03:33:36 51.890730 107.638197 1.8999999761581 723.4 1.985283613205 116.70999908447 84 1 delete